sensor_id;sensor_type;location;lat;lon;timestamp;P1;durP1;ratioP1;P2;durP2;ratioP2
22916;SDS011;11624;53.250;7.456;2023-03-01T00:01:47;27.50;;;14.87;;
22916;SDS011;11624;53.250;7.456;2023-03-01T00:04:17;30.90;;;16.03;;
22916;SDS011;11624;53.250;7.456;2023-03-01T00:06:45;30.47;;;15.77;;
22916;SDS011;11624;53.250;7.456;2023-03-01T00:09:13;30.13;;;15.93;;
22916;SDS011;11624;53.250;7.456;2023-03-01T00:11:42;36.43;;;16.30;;
22916;SDS011;11624;53.250;7.456;2023-03-01T00:14:12;33.17;;;16.80;;
22916;SDS011;11624;53.250;7.456;2023-03-01T00:16:43;32.80;;;17.27;;
22916;SDS011;11624;53.250;7.456;2023-03-01T00:19:13;32.07;;;16.27;;
22916;SDS011;11624;53.250;7.456;2023-03-01T00:21:43;35.20;;;16.43;;
22916;SDS011;11624;53.250;7.456;2023-03-01T00:24:12;32.73;;;15.97;;
22916;SDS011;11624;53.250;7.456;2023-03-01T00:26:40;31.47;;;15.77;;
22916;SDS011;11624;53.250;7.456;2023-03-01T00:29:08;34.60;;;16.63;;
22916;SDS011;11624;53.250;7.456;2023-03-01T00:31:36;30.97;;;15.87;;
22916;SDS011;11624;53.250;7.456;2023-03-01T00:34:04;31.80;;;15.87;;
22916;SDS011;11624;53.250;7.456;2023-03-01T00:36:33;31.73;;;16.00;;
22916;SDS011;11624;53.250;7.456;2023-03-01T00:39:05;31.53;;;16.57;;
22916;SDS011;11624;53.250;7.456;2023-03-01T00:41:36;31.57;;;15.43;;
22916;SDS011;11624;53.250;7.456;2023-03-01T00:44:07;31.40;;;16.43;;
22916;SDS011;11624;53.250;7.456;2023-03-01T00:46:35;34.30;;;16.20;;
22916;SDS011;11624;53.250;7.456;2023-03-01T00:49:03;36.63;;;16.93;;
22916;SDS011;11624;53.250;7.456;2023-03-01T00:51:32;31.50;;;16.07;;
22916;SDS011;11624;53.250;7.456;2023-03-01T00:54:01;33.90;;;15.97;;
22916;SDS011;11624;53.250;7.456;2023-03-01T00:56:31;35.27;;;16.33;;
22916;SDS011;11624;53.250;7.456;2023-03-01T00:58:59;33.10;;;16.90;;
22916;SDS011;11624;53.250;7.456;2023-03-01T01:01:28;35.07;;;17.03;;
22916;SDS011;11624;53.250;7.456;2023-03-01T01:03:58;33.83;;;16.13;;
22916;SDS011;11624;53.250;7.456;2023-03-01T01:06:28;31.20;;;15.10;;
22916;SDS011;11624;53.250;7.456;2023-03-01T01:08:59;29.73;;;15.77;;
22916;SDS011;11624;53.250;7.456;2023-03-01T01:11:30;31.30;;;15.83;;
22916;SDS011;11624;53.250;7.456;2023-03-01T01:13:58;31.40;;;15.90;;
22916;SDS011;11624;53.250;7.456;2023-03-01T01:16:28;36.90;;;16.70;;
22916;SDS011;11624;53.250;7.456;2023-03-01T01:18:57;32.37;;;16.07;;
22916;SDS011;11624;53.250;7.456;2023-03-01T01:21:26;33.50;;;16.80;;
22916;SDS011;11624;53.250;7.456;2023-03-01T01:23:55;36.33;;;17.10;;
22916;SDS011;11624;53.250;7.456;2023-03-01T01:26:24;35.33;;;17.17;;
22916;SDS011;11624;53.250;7.456;2023-03-01T01:28:56;35.43;;;17.60;;
22916;SDS011;11624;53.250;7.456;2023-03-01T01:31:25;36.87;;;18.73;;
22916;SDS011;11624;53.250;7.456;2023-03-01T01:33:55;33.90;;;17.70;;
22916;SDS011;11624;53.250;7.456;2023-03-01T01:36:23;35.17;;;18.23;;
22916;SDS011;11624;53.250;7.456;2023-03-01T01:38:51;35.27;;;18.03;;
22916;SDS011;11624;53.250;7.456;2023-03-01T01:41:20;32.97;;;17.13;;
22916;SDS011;11624;53.250;7.456;2023-03-01T01:43:49;36.13;;;19.17;;
22916;SDS011;11624;53.250;7.456;2023-03-01T01:46:34;35.80;;;18.27;;
22916;SDS011;11624;53.250;7.456;2023-03-01T01:49:05;38.83;;;17.93;;
22916;SDS011;11624;53.250;7.456;2023-03-01T01:51:35;37.40;;;18.10;;
22916;SDS011;11624;53.250;7.456;2023-03-01T01:54:08;34.37;;;17.63;;
22916;SDS011;11624;53.250;7.456;2023-03-01T01:56:40;36.60;;;17.20;;
22916;SDS011;11624;53.250;7.456;2023-03-01T01:59:12;35.07;;;17.43;;
22916;SDS011;11624;53.250;7.456;2023-03-01T02:01:42;35.00;;;17.53;;
22916;SDS011;11624;53.250;7.456;2023-03-01T02:04:11;34.20;;;17.37;;
22916;SDS011;11624;53.250;7.456;2023-03-01T02:06:39;33.50;;;17.43;;
22916;SDS011;11624;53.250;7.456;2023-03-01T02:09:12;34.60;;;17.27;;
22916;SDS011;11624;53.250;7.456;2023-03-01T02:11:42;35.50;;;17.77;;
22916;SDS011;11624;53.250;7.456;2023-03-01T02:14:13;37.57;;;18.43;;
22916;SDS011;11624;53.250;7.456;2023-03-01T02:16:43;34.97;;;18.73;;
22916;SDS011;11624;53.250;7.456;2023-03-01T02:19:13;35.90;;;17.63;;
22916;SDS011;11624;53.250;7.456;2023-03-01T02:21:47;38.90;;;18.23;;
22916;SDS011;11624;53.250;7.456;2023-03-01T02:24:26;36.63;;;17.80;;
22916;SDS011;11624;53.250;7.456;2023-03-01T02:27:01;31.73;;;17.47;;
22916;SDS011;11624;53.250;7.456;2023-03-01T02:29:31;41.47;;;18.83;;
22916;SDS011;11624;53.250;7.456;2023-03-01T02:31:59;39.70;;;18.10;;
22916;SDS011;11624;53.250;7.456;2023-03-01T02:34:29;40.23;;;19.50;;
22916;SDS011;11624;53.250;7.456;2023-03-01T02:37:00;40.40;;;20.40;;
22916;SDS011;11624;53.250;7.456;2023-03-01T02:39:31;36.87;;;19.07;;
22916;SDS011;11624;53.250;7.456;2023-03-01T02:42:03;37.63;;;19.27;;
22916;SDS011;11624;53.250;7.456;2023-03-01T02:44:34;39.20;;;18.23;;
22916;SDS011;11624;53.250;7.456;2023-03-01T02:47:02;35.93;;;18.43;;
22916;SDS011;11624;53.250;7.456;2023-03-01T02:49:33;40.90;;;19.20;;
22916;SDS011;11624;53.250;7.456;2023-03-01T02:55:09;36.27;;;18.53;;
22916;SDS011;11624;53.250;7.456;2023-03-01T02:57:40;35.17;;;18.37;;
22916;SDS011;11624;53.250;7.456;2023-03-01T03:00:12;35.73;;;18.63;;
22916;SDS011;11624;53.250;7.456;2023-03-01T03:02:46;39.17;;;17.90;;
22916;SDS011;11624;53.250;7.456;2023-03-01T03:05:22;36.57;;;17.83;;
22916;SDS011;11624;53.250;7.456;2023-03-01T03:07:55;33.87;;;18.00;;
22916;SDS011;11624;53.250;7.456;2023-03-01T03:10:25;37.77;;;18.67;;
22916;SDS011;11624;53.250;7.456;2023-03-01T03:12:55;34.77;;;17.47;;
22916;SDS011;11624;53.250;7.456;2023-03-01T03:15:26;37.73;;;18.07;;
22916;SDS011;11624;53.250;7.456;2023-03-01T03:17:56;40.80;;;18.50;;
22916;SDS011;11624;53.250;7.456;2023-03-01T03:20:26;35.30;;;18.57;;
22916;SDS011;11624;53.250;7.456;2023-03-01T03:22:56;38.57;;;18.33;;
22916;SDS011;11624;53.250;7.456;2023-03-01T03:25:25;37.83;;;19.47;;
22916;SDS011;11624;53.250;7.456;2023-03-01T03:27:55;43.03;;;19.50;;
22916;SDS011;11624;53.250;7.456;2023-03-01T03:30:25;31.87;;;17.20;;
22916;SDS011;11624;53.250;7.456;2023-03-01T03:32:56;38.53;;;18.47;;
22916;SDS011;11624;53.250;7.456;2023-03-01T03:35:26;34.40;;;17.73;;
22916;SDS011;11624;53.250;7.456;2023-03-01T03:37:57;35.53;;;18.17;;
22916;SDS011;11624;53.250;7.456;2023-03-01T03:40:31;34.93;;;18.53;;
22916;SDS011;11624;53.250;7.456;2023-03-01T03:43:01;34.87;;;17.57;;
22916;SDS011;11624;53.250;7.456;2023-03-01T03:45:30;35.23;;;18.07;;
22916;SDS011;11624;53.250;7.456;2023-03-01T03:48:00;36.90;;;18.17;;
22916;SDS011;11624;53.250;7.456;2023-03-01T03:50:28;34.37;;;18.20;;
22916;SDS011;11624;53.250;7.456;2023-03-01T03:52:57;37.03;;;18.40;;
22916;SDS011;11624;53.250;7.456;2023-03-01T03:55:27;36.00;;;18.07;;
22916;SDS011;11624;53.250;7.456;2023-03-01T03:57:57;38.33;;;17.60;;
22916;SDS011;11624;53.250;7.456;2023-03-01T04:00:28;32.27;;;16.57;;
22916;SDS011;11624;53.250;7.456;2023-03-01T04:02:58;37.30;;;18.60;;
22916;SDS011;11624;53.250;7.456;2023-03-01T04:05:27;35.67;;;18.13;;
22916;SDS011;11624;53.250;7.456;2023-03-01T04:07:55;34.93;;;17.70;;
22916;SDS011;11624;53.250;7.456;2023-03-01T04:10:31;36.53;;;19.00;;
22916;SDS011;11624;53.250;7.456;2023-03-01T04:13:00;39.50;;;19.27;;
22916;SDS011;11624;53.250;7.456;2023-03-01T04:15:28;42.50;;;19.53;;
22916;SDS011;11624;53.250;7.456;2023-03-01T04:18:00;44.30;;;22.43;;
22916;SDS011;11624;53.250;7.456;2023-03-01T04:20:29;49.03;;;22.93;;
22916;SDS011;11624;53.250;7.456;2023-03-01T04:23:00;50.67;;;23.60;;
22916;SDS011;11624;53.250;7.456;2023-03-01T04:25:37;59.40;;;25.97;;
22916;SDS011;11624;53.250;7.456;2023-03-01T04:28:06;60.40;;;28.57;;
22916;SDS011;11624;53.250;7.456;2023-03-01T04:30:35;61.87;;;28.17;;
22916;SDS011;11624;53.250;7.456;2023-03-01T04:33:05;65.33;;;28.97;;
22916;SDS011;11624;53.250;7.456;2023-03-01T04:35:34;65.70;;;29.70;;
22916;SDS011;11624;53.250;7.456;2023-03-01T04:38:03;67.40;;;28.77;;
22916;SDS011;11624;53.250;7.456;2023-03-01T04:40:32;60.07;;;28.80;;
22916;SDS011;11624;53.250;7.456;2023-03-01T04:43:01;244.30;;;38.30;;
22916;SDS011;11624;53.250;7.456;2023-03-01T04:45:31;165.03;;;33.90;;
22916;SDS011;11624;53.250;7.456;2023-03-01T04:48:01;228.53;;;37.13;;
22916;SDS011;11624;53.250;7.456;2023-03-01T04:50:30;632.43;;;59.67;;
22916;SDS011;11624;53.250;7.456;2023-03-01T04:52:59;694.83;;;68.20;;
22916;SDS011;11624;53.250;7.456;2023-03-01T04:55:27;324.27;;;44.20;;
22916;SDS011;11624;53.250;7.456;2023-03-01T04:57:55;592.73;;;65.20;;
22916;SDS011;11624;53.250;7.456;2023-03-01T05:00:24;509.57;;;56.03;;
22916;SDS011;11624;53.250;7.456;2023-03-01T05:02:53;456.80;;;50.27;;
22916;SDS011;11624;53.250;7.456;2023-03-01T05:05:24;940.40;;;73.77;;
22916;SDS011;11624;53.250;7.456;2023-03-01T05:07:55;768.70;;;65.30;;
22916;SDS011;11624;53.250;7.456;2023-03-01T05:10:25;576.77;;;67.10;;
22916;SDS011;11624;53.250;7.456;2023-03-01T05:12:55;821.40;;;84.97;;
22916;SDS011;11624;53.250;7.456;2023-03-01T05:15:24;836.27;;;81.87;;
22916;SDS011;11624;53.250;7.456;2023-03-01T05:17:53;850.40;;;81.80;;
22916;SDS011;11624;53.250;7.456;2023-03-01T05:20:21;719.10;;;73.13;;
22916;SDS011;11624;53.250;7.456;2023-03-01T05:22:50;224.53;;;35.23;;
22916;SDS011;11624;53.250;7.456;2023-03-01T05:25:20;207.50;;;41.57;;
22916;SDS011;11624;53.250;7.456;2023-03-01T05:27:49;291.60;;;43.63;;
22916;SDS011;11624;53.250;7.456;2023-03-01T05:30:17;335.93;;;40.83;;
22916;SDS011;11624;53.250;7.456;2023-03-01T05:32:47;465.97;;;53.17;;
22916;SDS011;11624;53.250;7.456;2023-03-01T05:35:16;207.83;;;35.00;;
22916;SDS011;11624;53.250;7.456;2023-03-01T05:37:46;177.33;;;33.20;;
22916;SDS011;11624;53.250;7.456;2023-03-01T05:40:16;219.07;;;38.30;;
22916;SDS011;11624;53.250;7.456;2023-03-01T05:42:47;79.30;;;29.30;;
22916;SDS011;11624;53.250;7.456;2023-03-01T05:45:17;102.03;;;35.20;;
22916;SDS011;11624;53.250;7.456;2023-03-01T05:47:46;104.83;;;36.20;;
22916;SDS011;11624;53.250;7.456;2023-03-01T05:50:16;166.20;;;40.67;;
22916;SDS011;11624;53.250;7.456;2023-03-01T05:52:46;218.33;;;44.57;;
22916;SDS011;11624;53.250;7.456;2023-03-01T05:55:16;214.90;;;39.40;;
22916;SDS011;11624;53.250;7.456;2023-03-01T05:57:46;235.20;;;38.80;;
22916;SDS011;11624;53.250;7.456;2023-03-01T06:00:16;231.33;;;36.77;;
22916;SDS011;11624;53.250;7.456;2023-03-01T06:02:48;215.17;;;30.90;;
22916;SDS011;11624;53.250;7.456;2023-03-01T06:05:18;180.93;;;30.43;;
22916;SDS011;11624;53.250;7.456;2023-03-01T06:07:46;196.23;;;31.17;;
22916;SDS011;11624;53.250;7.456;2023-03-01T06:10:14;161.73;;;31.67;;
22916;SDS011;11624;53.250;7.456;2023-03-01T06:12:42;131.93;;;32.10;;
22916;SDS011;11624;53.250;7.456;2023-03-01T06:15:14;154.23;;;31.73;;
22916;SDS011;11624;53.250;7.456;2023-03-01T06:17:44;170.87;;;33.00;;
22916;SDS011;11624;53.250;7.456;2023-03-01T06:20:15;118.07;;;31.73;;
22916;SDS011;11624;53.250;7.456;2023-03-01T06:22:45;173.97;;;30.40;;
22916;SDS011;11624;53.250;7.456;2023-03-01T06:25:14;123.17;;;34.70;;
22916;SDS011;11624;53.250;7.456;2023-03-01T06:27:43;149.20;;;31.97;;
22916;SDS011;11624;53.250;7.456;2023-03-01T06:30:14;178.87;;;35.17;;
22916;SDS011;11624;53.250;7.456;2023-03-01T06:32:43;168.17;;;34.93;;
22916;SDS011;11624;53.250;7.456;2023-03-01T06:35:12;87.63;;;30.40;;
22916;SDS011;11624;53.250;7.456;2023-03-01T06:37:44;141.33;;;30.50;;
22916;SDS011;11624;53.250;7.456;2023-03-01T06:40:13;75.73;;;28.50;;
22916;SDS011;11624;53.250;7.456;2023-03-01T06:42:43;66.20;;;28.70;;
22916;SDS011;11624;53.250;7.456;2023-03-01T06:45:17;66.23;;;28.20;;
22916;SDS011;11624;53.250;7.456;2023-03-01T06:47:46;60.87;;;28.00;;
22916;SDS011;11624;53.250;7.456;2023-03-01T06:50:15;64.07;;;28.20;;
22916;SDS011;11624;53.250;7.456;2023-03-01T06:52:44;57.70;;;28.00;;
22916;SDS011;11624;53.250;7.456;2023-03-01T06:55:11;60.07;;;27.00;;
22916;SDS011;11624;53.250;7.456;2023-03-01T06:57:40;60.30;;;28.77;;
22916;SDS011;11624;53.250;7.456;2023-03-01T07:00:09;68.40;;;26.67;;
22916;SDS011;11624;53.250;7.456;2023-03-01T07:02:39;80.53;;;28.67;;
22916;SDS011;11624;53.250;7.456;2023-03-01T07:05:07;82.23;;;28.03;;
22916;SDS011;11624;53.250;7.456;2023-03-01T07:07:36;145.77;;;29.07;;
22916;SDS011;11624;53.250;7.456;2023-03-01T07:10:04;75.83;;;29.13;;
22916;SDS011;11624;53.250;7.456;2023-03-01T07:12:33;65.67;;;27.50;;
22916;SDS011;11624;53.250;7.456;2023-03-01T07:15:01;66.37;;;28.30;;
22916;SDS011;11624;53.250;7.456;2023-03-01T07:17:30;67.23;;;27.50;;
22916;SDS011;11624;53.250;7.456;2023-03-01T07:20:00;63.87;;;27.53;;
22916;SDS011;11624;53.250;7.456;2023-03-01T07:22:28;67.93;;;29.13;;
22916;SDS011;11624;53.250;7.456;2023-03-01T07:25:00;58.43;;;27.47;;
22916;SDS011;11624;53.250;7.456;2023-03-01T07:27:28;60.43;;;27.40;;
22916;SDS011;11624;53.250;7.456;2023-03-01T07:29:56;60.63;;;27.53;;
22916;SDS011;11624;53.250;7.456;2023-03-01T07:32:24;62.47;;;29.40;;
22916;SDS011;11624;53.250;7.456;2023-03-01T07:34:52;66.37;;;29.87;;
22916;SDS011;11624;53.250;7.456;2023-03-01T07:37:21;57.33;;;27.17;;
22916;SDS011;11624;53.250;7.456;2023-03-01T07:39:49;60.17;;;28.00;;
22916;SDS011;11624;53.250;7.456;2023-03-01T07:42:18;62.90;;;30.23;;
22916;SDS011;11624;53.250;7.456;2023-03-01T07:44:46;66.97;;;31.33;;
22916;SDS011;11624;53.250;7.456;2023-03-01T07:47:14;62.47;;;29.73;;
22916;SDS011;11624;53.250;7.456;2023-03-01T07:49:42;66.73;;;31.33;;
22916;SDS011;11624;53.250;7.456;2023-03-01T07:52:10;59.50;;;29.20;;
22916;SDS011;11624;53.250;7.456;2023-03-01T07:54:42;52.27;;;25.97;;
22916;SDS011;11624;53.250;7.456;2023-03-01T07:57:10;55.80;;;28.17;;
22916;SDS011;11624;53.250;7.456;2023-03-01T07:59:38;51.77;;;26.23;;
22916;SDS011;11624;53.250;7.456;2023-03-01T08:02:07;48.40;;;24.97;;
22916;SDS011;11624;53.250;7.456;2023-03-01T08:04:36;42.23;;;22.80;;
22916;SDS011;11624;53.250;7.456;2023-03-01T08:07:04;43.13;;;22.43;;
22916;SDS011;11624;53.250;7.456;2023-03-01T08:09:34;40.23;;;20.97;;
22916;SDS011;11624;53.250;7.456;2023-03-01T08:12:04;36.83;;;20.47;;
22916;SDS011;11624;53.250;7.456;2023-03-01T08:14:32;40.43;;;20.90;;
22916;SDS011;11624;53.250;7.456;2023-03-01T08:17:00;40.00;;;21.40;;
22916;SDS011;11624;53.250;7.456;2023-03-01T08:19:29;38.50;;;20.00;;
22916;SDS011;11624;53.250;7.456;2023-03-01T08:21:58;35.10;;;19.63;;
22916;SDS011;11624;53.250;7.456;2023-03-01T08:24:26;37.37;;;20.07;;
22916;SDS011;11624;53.250;7.456;2023-03-01T08:26:54;38.07;;;19.40;;
22916;SDS011;11624;53.250;7.456;2023-03-01T08:29:24;36.30;;;18.27;;
22916;SDS011;11624;53.250;7.456;2023-03-01T08:31:52;38.77;;;18.80;;
22916;SDS011;11624;53.250;7.456;2023-03-01T08:34:20;38.43;;;20.07;;
22916;SDS011;11624;53.250;7.456;2023-03-01T08:36:48;39.10;;;19.40;;
22916;SDS011;11624;53.250;7.456;2023-03-01T08:39:18;33.60;;;17.67;;
22916;SDS011;11624;53.250;7.456;2023-03-01T08:41:47;34.23;;;18.57;;
22916;SDS011;11624;53.250;7.456;2023-03-01T08:44:15;36.70;;;19.93;;
22916;SDS011;11624;53.250;7.456;2023-03-01T08:46:45;37.93;;;21.20;;
22916;SDS011;11624;53.250;7.456;2023-03-01T08:49:14;38.87;;;21.47;;
22916;SDS011;11624;53.250;7.456;2023-03-01T08:51:44;38.23;;;21.17;;
22916;SDS011;11624;53.250;7.456;2023-03-01T08:54:14;42.93;;;22.47;;
22916;SDS011;11624;53.250;7.456;2023-03-01T08:56:44;38.17;;;20.53;;
22916;SDS011;11624;53.250;7.456;2023-03-01T08:59:13;38.87;;;21.77;;
22916;SDS011;11624;53.250;7.456;2023-03-01T09:01:44;37.73;;;20.73;;
22916;SDS011;11624;53.250;7.456;2023-03-01T09:04:14;37.80;;;21.63;;
22916;SDS011;11624;53.250;7.456;2023-03-01T09:06:42;39.87;;;21.77;;
22916;SDS011;11624;53.250;7.456;2023-03-01T09:09:12;38.23;;;21.07;;
22916;SDS011;11624;53.250;7.456;2023-03-01T09:11:42;40.93;;;22.37;;
22916;SDS011;11624;53.250;7.456;2023-03-01T09:14:12;40.40;;;21.97;;
22916;SDS011;11624;53.250;7.456;2023-03-01T09:16:41;38.20;;;20.87;;
22916;SDS011;11624;53.250;7.456;2023-03-01T09:19:11;34.17;;;19.77;;
22916;SDS011;11624;53.250;7.456;2023-03-01T09:21:39;39.17;;;21.83;;
22916;SDS011;11624;53.250;7.456;2023-03-01T09:24:11;38.97;;;21.33;;
22916;SDS011;11624;53.250;7.456;2023-03-01T09:26:41;37.05;;;20.92;;
22916;SDS011;11624;53.250;7.456;2023-03-01T09:29:14;40.13;;;21.42;;
22916;SDS011;11624;53.250;7.456;2023-03-01T09:31:42;36.80;;;20.67;;
22916;SDS011;11624;53.250;7.456;2023-03-01T09:34:12;37.90;;;21.85;;
22916;SDS011;11624;53.250;7.456;2023-03-01T09:36:42;35.85;;;19.90;;
22916;SDS011;11624;53.250;7.456;2023-03-01T09:39:10;35.22;;;20.20;;
22916;SDS011;11624;53.250;7.456;2023-03-01T09:41:49;37.70;;;21.70;;
22916;SDS011;11624;53.250;7.456;2023-03-01T09:44:26;39.08;;;21.65;;
22916;SDS011;11624;53.250;7.456;2023-03-01T09:46:59;40.15;;;22.08;;
22916;SDS011;11624;53.250;7.456;2023-03-01T09:49:30;39.55;;;20.60;;
22916;SDS011;11624;53.250;7.456;2023-03-01T09:52:03;37.00;;;21.45;;
22916;SDS011;11624;53.250;7.456;2023-03-01T09:54:39;37.00;;;21.52;;
22916;SDS011;11624;53.250;7.456;2023-03-01T09:57:14;34.50;;;21.55;;
22916;SDS011;11624;53.250;7.456;2023-03-01T09:59:52;34.85;;;20.38;;
22916;SDS011;11624;53.250;7.456;2023-03-01T10:02:32;30.70;;;18.23;;
22916;SDS011;11624;53.250;7.456;2023-03-01T10:05:12;30.25;;;16.33;;
22916;SDS011;11624;53.250;7.456;2023-03-01T10:07:48;32.53;;;18.63;;
22916;SDS011;11624;53.250;7.456;2023-03-01T10:10:27;30.20;;;17.65;;
22916;SDS011;11624;53.250;7.456;2023-03-01T10:12:59;32.47;;;18.80;;
22916;SDS011;11624;53.250;7.456;2023-03-01T10:15:33;33.15;;;18.33;;
22916;SDS011;11624;53.250;7.456;2023-03-01T10:18:06;35.03;;;18.38;;
22916;SDS011;11624;53.250;7.456;2023-03-01T10:20:44;31.40;;;18.92;;
22916;SDS011;11624;53.250;7.456;2023-03-01T10:23:16;28.27;;;17.27;;
22916;SDS011;11624;53.250;7.456;2023-03-01T10:25:56;25.83;;;15.10;;
22916;SDS011;11624;53.250;7.456;2023-03-01T10:28:45;29.85;;;16.92;;
22916;SDS011;11624;53.250;7.456;2023-03-01T10:31:22;30.10;;;17.52;;
22916;SDS011;11624;53.250;7.456;2023-03-01T10:33:55;29.92;;;17.23;;
22916;SDS011;11624;53.250;7.456;2023-03-01T10:36:26;25.67;;;16.27;;
22916;SDS011;11624;53.250;7.456;2023-03-01T10:38:55;29.58;;;17.23;;
22916;SDS011;11624;53.250;7.456;2023-03-01T10:41:25;31.58;;;16.30;;
22916;SDS011;11624;53.250;7.456;2023-03-01T10:43:55;27.73;;;16.65;;
22916;SDS011;11624;53.250;7.456;2023-03-01T10:46:25;29.05;;;16.75;;
22916;SDS011;11624;53.250;7.456;2023-03-01T10:49:05;26.95;;;16.40;;
22916;SDS011;11624;53.250;7.456;2023-03-01T10:51:39;29.50;;;16.77;;
22916;SDS011;11624;53.250;7.456;2023-03-01T10:54:15;27.83;;;17.70;;
22916;SDS011;11624;53.250;7.456;2023-03-01T10:56:45;29.05;;;17.55;;
22916;SDS011;11624;53.250;7.456;2023-03-01T10:59:20;28.08;;;17.52;;
22916;SDS011;11624;53.250;7.456;2023-03-01T11:02:03;27.20;;;16.95;;
22916;SDS011;11624;53.250;7.456;2023-03-01T11:04:58;28.20;;;16.67;;
22916;SDS011;11624;53.250;7.456;2023-03-01T11:07:29;28.92;;;17.33;;
22916;SDS011;11624;53.250;7.456;2023-03-01T11:09:57;28.83;;;17.20;;
22916;SDS011;11624;53.250;7.456;2023-03-01T11:12:25;29.73;;;17.00;;
22916;SDS011;11624;53.250;7.456;2023-03-01T11:14:56;26.73;;;15.77;;
22916;SDS011;11624;53.250;7.456;2023-03-01T11:17:26;28.00;;;16.38;;
22916;SDS011;11624;53.250;7.456;2023-03-01T11:20:05;27.70;;;15.75;;
22916;SDS011;11624;53.250;7.456;2023-03-01T11:22:45;26.75;;;15.80;;
22916;SDS011;11624;53.250;7.456;2023-03-01T11:25:17;27.67;;;16.80;;
22916;SDS011;11624;53.250;7.456;2023-03-01T11:27:46;27.80;;;15.80;;
22916;SDS011;11624;53.250;7.456;2023-03-01T11:30:16;25.52;;;15.65;;
22916;SDS011;11624;53.250;7.456;2023-03-01T11:32:50;25.85;;;15.25;;
22916;SDS011;11624;53.250;7.456;2023-03-01T11:35:27;23.55;;;14.00;;
22916;SDS011;11624;53.250;7.456;2023-03-01T11:38:04;26.00;;;15.95;;
22916;SDS011;11624;53.250;7.456;2023-03-01T11:40:44;25.48;;;15.23;;
22916;SDS011;11624;53.250;7.456;2023-03-01T11:43:16;24.00;;;14.40;;
22916;SDS011;11624;53.250;7.456;2023-03-01T11:45:54;25.27;;;14.55;;
22916;SDS011;11624;53.250;7.456;2023-03-01T11:48:46;29.27;;;15.82;;
22916;SDS011;11624;53.250;7.456;2023-03-01T11:51:23;28.38;;;15.82;;
22916;SDS011;11624;53.250;7.456;2023-03-01T11:54:04;26.15;;;14.60;;
22916;SDS011;11624;53.250;7.456;2023-03-01T11:56:38;25.33;;;15.43;;
22916;SDS011;11624;53.250;7.456;2023-03-01T11:59:15;23.02;;;13.48;;
22916;SDS011;11624;53.250;7.456;2023-03-01T12:02:00;25.67;;;14.70;;
22916;SDS011;11624;53.250;7.456;2023-03-01T12:04:51;25.15;;;15.07;;
22916;SDS011;11624;53.250;7.456;2023-03-01T12:07:29;25.35;;;14.60;;
22916;SDS011;11624;53.250;7.456;2023-03-01T12:10:16;23.23;;;14.68;;
22916;SDS011;11624;53.250;7.456;2023-03-01T12:12:54;25.45;;;15.80;;
22916;SDS011;11624;53.250;7.456;2023-03-01T12:15:39;24.83;;;15.02;;
22916;SDS011;11624;53.250;7.456;2023-03-01T12:18:22;26.85;;;15.63;;
22916;SDS011;11624;53.250;7.456;2023-03-01T12:21:05;27.23;;;15.85;;
22916;SDS011;11624;53.250;7.456;2023-03-01T12:23:56;25.60;;;15.48;;
22916;SDS011;11624;53.250;7.456;2023-03-01T12:26:39;25.95;;;16.00;;
22916;SDS011;11624;53.250;7.456;2023-03-01T12:29:24;28.27;;;16.38;;
22916;SDS011;11624;53.250;7.456;2023-03-01T12:35:11;25.60;;;15.77;;
22916;SDS011;11624;53.250;7.456;2023-03-01T12:37:56;27.70;;;16.17;;
22916;SDS011;11624;53.250;7.456;2023-03-01T12:40:38;26.17;;;16.00;;
22916;SDS011;11624;53.250;7.456;2023-03-01T12:43:24;24.83;;;15.25;;
22916;SDS011;11624;53.250;7.456;2023-03-01T12:48:55;29.90;;;16.30;;
22916;SDS011;11624;53.250;7.456;2023-03-01T12:51:33;24.95;;;15.35;;
22916;SDS011;11624;53.250;7.456;2023-03-01T12:54:05;25.33;;;15.68;;
22916;SDS011;11624;53.250;7.456;2023-03-01T12:56:40;25.17;;;14.80;;
22916;SDS011;11624;53.250;7.456;2023-03-01T12:59:13;24.88;;;15.57;;
22916;SDS011;11624;53.250;7.456;2023-03-01T13:01:48;25.60;;;14.88;;
22916;SDS011;11624;53.250;7.456;2023-03-01T13:04:24;27.40;;;15.10;;
22916;SDS011;11624;53.250;7.456;2023-03-01T13:07:06;26.38;;;15.48;;
22916;SDS011;11624;53.250;7.456;2023-03-01T13:09:46;25.63;;;15.23;;
22916;SDS011;11624;53.250;7.456;2023-03-01T13:18:03;25.83;;;14.65;;
22916;SDS011;11624;53.250;7.456;2023-03-01T13:20:53;23.08;;;14.27;;
22916;SDS011;11624;53.250;7.456;2023-03-01T13:23:24;25.77;;;14.65;;
22916;SDS011;11624;53.250;7.456;2023-03-01T13:26:11;25.55;;;15.02;;
22916;SDS011;11624;53.250;7.456;2023-03-01T13:28:48;24.00;;;15.27;;
22916;SDS011;11624;53.250;7.456;2023-03-01T13:34:42;23.13;;;14.07;;
22916;SDS011;11624;53.250;7.456;2023-03-01T13:37:19;23.77;;;14.02;;
22916;SDS011;11624;53.250;7.456;2023-03-01T13:39:58;22.20;;;14.10;;
22916;SDS011;11624;53.250;7.456;2023-03-01T13:42:35;22.58;;;13.75;;
22916;SDS011;11624;53.250;7.456;2023-03-01T13:45:17;24.48;;;13.77;;
22916;SDS011;11624;53.250;7.456;2023-03-01T13:47:49;22.95;;;14.15;;
22916;SDS011;11624;53.250;7.456;2023-03-01T13:50:23;25.13;;;14.90;;
22916;SDS011;11624;53.250;7.456;2023-03-01T13:52:53;26.00;;;14.90;;
22916;SDS011;11624;53.250;7.456;2023-03-01T13:55:27;25.15;;;14.05;;
22916;SDS011;11624;53.250;7.456;2023-03-01T13:58:03;23.88;;;14.50;;
22916;SDS011;11624;53.250;7.456;2023-03-01T14:00:40;22.33;;;12.98;;
22916;SDS011;11624;53.250;7.456;2023-03-01T14:03:10;22.95;;;13.18;;
22916;SDS011;11624;53.250;7.456;2023-03-01T14:05:41;23.98;;;13.88;;
22916;SDS011;11624;53.250;7.456;2023-03-01T14:08:19;24.98;;;13.18;;
22916;SDS011;11624;53.250;7.456;2023-03-01T14:11:02;24.15;;;13.02;;
22916;SDS011;11624;53.250;7.456;2023-03-01T14:13:58;22.83;;;13.00;;
22916;SDS011;11624;53.250;7.456;2023-03-01T14:16:46;23.85;;;13.30;;
22916;SDS011;11624;53.250;7.456;2023-03-01T14:19:23;21.10;;;12.00;;
22916;SDS011;11624;53.250;7.456;2023-03-01T14:22:01;19.50;;;11.50;;
22916;SDS011;11624;53.250;7.456;2023-03-01T14:24:44;23.20;;;12.38;;
22916;SDS011;11624;53.250;7.456;2023-03-01T14:27:16;24.15;;;13.35;;
22916;SDS011;11624;53.250;7.456;2023-03-01T14:29:53;22.65;;;12.82;;
22916;SDS011;11624;53.250;7.456;2023-03-01T14:32:24;20.73;;;12.57;;
22916;SDS011;11624;53.250;7.456;2023-03-01T14:34:54;22.13;;;12.93;;
22916;SDS011;11624;53.250;7.456;2023-03-01T14:37:26;22.33;;;12.60;;
22916;SDS011;11624;53.250;7.456;2023-03-01T14:39:56;23.52;;;12.70;;
22916;SDS011;11624;53.250;7.456;2023-03-01T14:42:26;22.67;;;12.40;;
22916;SDS011;11624;53.250;7.456;2023-03-01T14:44:56;22.13;;;12.73;;
22916;SDS011;11624;53.250;7.456;2023-03-01T14:47:28;21.30;;;12.20;;
22916;SDS011;11624;53.250;7.456;2023-03-01T14:49:58;21.38;;;12.25;;
22916;SDS011;11624;53.250;7.456;2023-03-01T14:52:33;22.88;;;12.77;;
22916;SDS011;11624;53.250;7.456;2023-03-01T14:55:04;22.17;;;12.30;;
22916;SDS011;11624;53.250;7.456;2023-03-01T14:57:34;20.50;;;11.50;;
22916;SDS011;11624;53.250;7.456;2023-03-01T15:00:03;21.05;;;12.45;;
22916;SDS011;11624;53.250;7.456;2023-03-01T15:02:35;21.65;;;12.63;;
22916;SDS011;11624;53.250;7.456;2023-03-01T15:05:05;21.00;;;12.75;;
22916;SDS011;11624;53.250;7.456;2023-03-01T15:07:38;19.35;;;11.63;;